createdAt,value
2018-11-27T00:01:00.880Z,16.40
2018-11-27T00:03:35.872Z,12.57
2018-11-27T00:06:06.050Z,12.10
2018-11-27T00:08:36.115Z,11.37
2018-11-27T00:11:05.844Z,12.77
2018-11-27T00:13:35.588Z,12.37
2018-11-27T00:16:09.266Z,13.20
2018-11-27T00:18:39.150Z,13.00
2018-11-27T00:21:09.020Z,11.57
2018-11-27T00:23:38.984Z,12.03
2018-11-27T00:26:08.680Z,13.47
2018-11-27T00:28:38.646Z,13.47
2018-11-27T00:31:08.484Z,12.03
2018-11-27T00:33:38.258Z,12.60
2018-11-27T00:36:08.182Z,12.70
2018-11-27T00:38:37.964Z,12.47
2018-11-27T00:41:07.702Z,13.08
2018-11-27T00:43:37.445Z,12.27
2018-11-27T00:46:07.384Z,13.30
2018-11-27T00:48:37.406Z,12.10
2018-11-27T00:51:07.452Z,12.28
2018-11-27T00:53:37.434Z,11.30
2018-11-27T00:56:07.552Z,12.70
2018-11-27T00:58:37.523Z,11.70
2018-11-27T01:01:07.518Z,13.17
2018-11-27T01:03:37.586Z,13.33
2018-11-27T01:06:07.697Z,14.10
2018-11-27T01:08:37.582Z,11.33
2018-11-27T01:11:07.440Z,12.70
2018-11-27T01:13:37.358Z,12.10
2018-11-27T01:16:07.295Z,11.88
2018-11-27T01:18:37.303Z,12.63
2018-11-27T01:21:07.343Z,13.35
2018-11-27T01:23:37.278Z,13.17
2018-11-27T01:26:07.510Z,12.97
2018-11-27T01:28:37.561Z,12.47
2018-11-27T01:31:07.781Z,11.97
2018-11-27T01:33:37.895Z,14.53
2018-11-27T01:36:07.809Z,13.40
2018-11-27T01:38:37.761Z,11.90
2018-11-27T01:41:07.912Z,13.17
2018-11-27T01:43:37.853Z,15.03
2018-11-27T01:46:07.808Z,13.90
2018-11-27T01:48:38.080Z,12.78
2018-11-27T01:51:08.114Z,12.30
2018-11-27T01:53:38.019Z,12.63
2018-11-27T01:56:07.880Z,14.47
2018-11-27T01:58:37.796Z,11.83
2018-11-27T02:01:07.734Z,12.80
2018-11-27T02:03:37.669Z,14.07
2018-11-27T02:06:07.660Z,13.40
2018-11-27T02:08:37.337Z,12.30
2018-11-27T02:11:07.285Z,12.30
2018-11-27T02:13:38.350Z,14.53
2018-11-27T02:16:08.446Z,13.80
2018-11-27T02:18:38.331Z,13.93
2018-11-27T02:21:08.590Z,14.77
2018-11-27T02:23:38.642Z,13.10
2018-11-27T02:26:39.436Z,14.70
2018-11-27T02:29:39.983Z,16.23
2018-11-27T02:32:09.896Z,12.83
2018-11-27T02:34:39.929Z,13.47
2018-11-27T02:37:09.956Z,12.90
2018-11-27T02:39:39.678Z,12.73
2018-11-27T02:42:09.697Z,13.17
2018-11-27T02:44:39.721Z,14.47
2018-11-27T02:47:09.493Z,13.60
2018-11-27T02:49:39.558Z,13.68
2018-11-27T02:52:09.623Z,13.60
2018-11-27T02:54:39.570Z,15.53
2018-11-27T02:57:09.495Z,13.17
2018-11-27T02:59:39.376Z,12.27
2018-11-27T03:02:09.443Z,12.43
2018-11-27T03:04:39.457Z,11.93
2018-11-27T03:07:09.271Z,13.07
2018-11-27T03:09:39.456Z,12.67
2018-11-27T03:12:09.508Z,12.00
2018-11-27T03:14:39.305Z,16.47
2018-11-27T03:17:09.277Z,11.50
2018-11-27T03:19:39.213Z,13.13
2018-11-27T03:22:09.342Z,12.90
2018-11-27T03:24:39.249Z,11.43
2018-11-27T03:27:09.100Z,12.23
2018-11-27T03:29:38.967Z,13.13
2018-11-27T03:32:08.937Z,13.53
2018-11-27T03:34:38.782Z,12.50
2018-11-27T03:37:08.657Z,12.65
2018-11-27T03:39:38.708Z,10.33
2018-11-27T03:42:08.742Z,12.60
2018-11-27T03:44:38.830Z,14.43
2018-11-27T03:47:08.704Z,12.47
2018-11-27T03:49:38.541Z,12.27
2018-11-27T03:52:08.501Z,13.60
2018-11-27T03:54:38.479Z,13.00
2018-11-27T03:57:08.337Z,14.33
2018-11-27T03:59:38.262Z,11.70
2018-11-27T04:02:08.094Z,10.33
2018-11-27T04:04:38.022Z,12.50
2018-11-27T04:07:08.717Z,11.43
2018-11-27T04:09:38.707Z,13.33
2018-11-27T04:12:08.898Z,10.32
2018-11-27T04:14:38.969Z,10.40
2018-11-27T04:17:08.999Z,13.90
2018-11-27T04:19:38.943Z,11.63
2018-11-27T04:22:09.023Z,9.93
2018-11-27T04:24:39.034Z,11.57
2018-11-27T04:27:09.008Z,9.80
2018-11-27T04:29:39.252Z,10.20
2018-11-27T04:32:09.082Z,11.27
2018-11-27T04:34:39.230Z,11.30
2018-11-27T04:37:09.159Z,11.03
2018-11-27T04:39:38.964Z,13.50
2018-11-27T04:42:08.855Z,11.13
2018-11-27T04:44:38.780Z,11.37
2018-11-27T04:47:08.807Z,10.87
2018-11-27T04:49:38.768Z,12.35
2018-11-27T04:52:08.715Z,14.23
2018-11-27T04:54:38.896Z,10.70
2018-11-27T04:57:08.717Z,11.67
2018-11-27T04:59:38.618Z,10.10
2018-11-27T05:02:08.381Z,11.60
2018-11-27T05:04:38.390Z,8.80
2018-11-27T05:07:08.480Z,11.60
2018-11-27T05:09:38.421Z,10.50
2018-11-27T05:12:39.082Z,13.07
2018-11-27T05:15:11.386Z,11.65
2018-11-27T05:17:41.358Z,10.50
2018-11-27T05:20:12.530Z,11.33
2018-11-27T05:22:42.616Z,13.90
2018-11-27T05:25:13.546Z,15.40
2018-11-27T05:27:45.597Z,11.60
2018-11-27T05:30:16.771Z,12.83
2018-11-27T05:32:46.686Z,12.17
2018-11-27T05:35:18.889Z,13.70
2018-11-27T05:37:49.685Z,13.60
2018-11-27T05:40:21.517Z,12.47
2018-11-27T05:42:53.653Z,14.77
2018-11-27T05:45:24.521Z,12.87
2018-11-27T05:47:54.626Z,14.73
2018-11-27T05:50:24.567Z,12.40
2018-11-27T05:52:54.643Z,14.33
2018-11-27T05:55:24.726Z,13.13
2018-11-27T05:57:55.448Z,13.77
2018-11-27T06:00:27.433Z,13.43
2018-11-27T06:02:59.398Z,13.32
2018-11-27T06:05:29.375Z,14.70
2018-11-27T06:07:59.449Z,16.07
2018-11-27T06:10:29.441Z,16.63
2018-11-27T06:12:59.397Z,12.97
2018-11-27T06:15:32.685Z,13.53
2018-11-27T06:18:03.963Z,16.70
2018-11-27T06:20:34.072Z,15.47
2018-11-27T06:23:04.472Z,12.67
2018-11-27T06:25:34.276Z,14.57
2018-11-27T06:28:06.838Z,12.70
2018-11-27T06:30:37.223Z,13.47
2018-11-27T06:33:07.355Z,14.80
2018-11-27T06:35:39.114Z,13.80
2018-11-27T06:38:10.081Z,12.47
2018-11-27T06:40:40.830Z,15.08
2018-11-27T06:45:43.275Z,14.17
2018-11-27T06:48:12.587Z,14.40
2018-11-27T06:50:41.985Z,14.03
2018-11-27T06:53:11.340Z,18.95
2018-11-27T06:55:40.563Z,18.53
2018-11-27T06:58:09.888Z,16.10
2018-11-27T07:00:39.079Z,16.35
2018-11-27T07:03:11.451Z,16.32
2018-11-27T07:05:40.671Z,15.40
2018-11-27T07:08:10.226Z,26.10
2018-11-27T07:10:41.379Z,29.07
2018-11-27T07:13:14.054Z,31.87
2018-11-27T07:15:43.293Z,26.52
2018-11-27T07:18:12.559Z,25.67
2018-11-27T07:20:41.759Z,19.93
2018-11-27T07:23:10.975Z,19.53
2018-11-27T07:25:40.309Z,15.00
2018-11-27T07:28:09.511Z,18.77
2018-11-27T07:30:40.205Z,18.50
2018-11-27T07:33:09.481Z,18.10
2018-11-27T07:35:38.672Z,16.23
2018-11-27T07:38:07.899Z,19.13
2018-11-27T07:40:37.447Z,19.13
2018-11-27T07:43:11.049Z,18.67
2018-11-27T07:45:40.543Z,24.80
2018-11-27T07:48:10.290Z,22.30
2018-11-27T07:50:39.497Z,17.67
2018-11-27T07:53:08.817Z,18.80
2018-11-27T07:55:38.032Z,21.10
2018-11-27T07:58:07.605Z,17.50
2018-11-27T08:00:37.028Z,19.03
2018-11-27T08:03:07.080Z,17.97
2018-11-27T08:05:38.621Z,19.17
2018-11-27T08:08:10.351Z,19.60
2018-11-27T08:10:39.597Z,19.07
2018-11-27T08:13:09.297Z,22.15
2018-11-27T08:15:38.533Z,22.35
2018-11-27T08:18:07.900Z,21.63
2018-11-27T08:20:37.097Z,19.40
2018-11-27T08:23:07.733Z,21.87
2018-11-27T08:25:37.037Z,21.57
2018-11-27T08:28:07.511Z,21.33
2018-11-27T08:30:36.713Z,22.70
2018-11-27T08:33:06.406Z,23.00
2018-11-27T08:35:35.690Z,27.87
2018-11-27T08:38:04.923Z,26.60
2018-11-27T08:40:34.646Z,25.50
2018-11-27T08:43:04.839Z,27.93
2018-11-27T08:45:34.470Z,26.95
2018-11-27T08:48:04.403Z,29.10
2018-11-27T08:50:34.469Z,29.67
2018-11-27T08:53:05.794Z,31.50
2018-11-27T08:55:44.151Z,32.43
2018-11-27T08:58:18.662Z,33.67
2018-11-27T09:00:47.915Z,33.25
2018-11-27T09:03:18.205Z,32.38
2018-11-27T09:05:47.556Z,35.58
2018-11-27T09:08:16.991Z,31.10
2018-11-27T09:10:46.269Z,31.07
2018-11-27T09:13:15.790Z,31.87
2018-11-27T09:15:45.556Z,31.03
2018-11-27T09:18:19.538Z,30.60
2018-11-27T09:20:49.479Z,33.37
2018-11-27T09:23:18.728Z,32.23
2018-11-27T09:25:48.007Z,33.37
2018-11-27T09:28:17.322Z,32.10
2018-11-27T09:30:46.586Z,32.10
2018-11-27T09:33:16.008Z,34.97
2018-11-27T09:35:45.333Z,35.40
2018-11-27T09:38:14.579Z,36.70
2018-11-27T09:40:44.062Z,38.67
2018-11-27T09:43:13.346Z,35.63
2018-11-27T09:45:43.918Z,35.37
2018-11-27T09:48:13.197Z,38.67
2018-11-27T09:50:42.414Z,38.23
2018-11-27T09:53:13.275Z,41.23
2018-11-27T09:55:42.554Z,41.90
2018-11-27T09:58:11.874Z,37.17
2018-11-27T10:00:42.124Z,39.00
2018-11-27T10:03:12.939Z,40.00
2018-11-27T10:05:42.216Z,33.20
2018-11-27T10:08:11.523Z,38.40
2018-11-27T10:10:40.796Z,40.43
2018-11-27T10:13:10.035Z,38.63
2018-11-27T10:15:39.343Z,37.67
2018-11-27T10:18:08.603Z,36.43
2018-11-27T10:20:42.300Z,37.00
2018-11-27T10:23:12.583Z,37.33
2018-11-27T10:25:41.857Z,39.87
2018-11-27T10:28:11.121Z,40.58
2018-11-27T10:30:40.498Z,42.70
2018-11-27T10:33:10.965Z,38.00
2018-11-27T10:35:47.142Z,40.52
2018-11-27T10:38:16.377Z,40.05
2018-11-27T10:40:46.248Z,41.95
2018-11-27T10:43:19.718Z,45.37
2018-11-27T10:45:44.767Z,40.03
2018-11-27T10:48:14.099Z,48.38
2018-11-27T10:50:43.495Z,45.38
2018-11-27T10:53:13.444Z,41.40
2018-11-27T10:55:42.781Z,73.02
2018-11-27T10:58:12.161Z,59.93
2018-11-27T11:00:51.238Z,59.04
2018-11-27T11:03:25.117Z,49.67
2018-11-27T11:05:56.483Z,52.70
2018-11-27T11:08:26.456Z,50.13
2018-11-27T11:10:56.298Z,48.87
2018-11-27T11:13:26.251Z,45.23
2018-11-27T11:15:56.267Z,41.70
2018-11-27T11:18:26.487Z,39.23
2018-11-27T11:20:56.470Z,49.03
2018-11-27T11:23:26.483Z,44.53
2018-11-27T11:25:56.545Z,40.97
2018-11-27T11:28:29.343Z,46.97
2018-11-27T11:30:59.443Z,42.53
2018-11-27T11:33:29.611Z,43.67
2018-11-27T11:35:59.774Z,42.27
2018-11-27T11:38:29.653Z,42.87
2018-11-27T11:40:59.685Z,46.00
2018-11-27T11:43:29.661Z,40.30
2018-11-27T11:45:59.804Z,42.30
2018-11-27T11:48:29.799Z,42.77
2018-11-27T11:50:59.669Z,41.57
2018-11-27T11:53:29.932Z,41.73
2018-11-27T11:55:59.911Z,42.07
2018-11-27T11:58:29.853Z,44.13
2018-11-27T12:00:59.878Z,43.53
2018-11-27T12:03:29.970Z,42.30
2018-11-27T12:06:00.081Z,44.17
2018-11-27T12:08:30.106Z,42.73
2018-11-27T12:11:00.323Z,41.70
2018-11-27T12:13:30.471Z,41.83
2018-11-27T12:16:00.743Z,39.40
2018-11-27T12:18:30.925Z,45.60
2018-11-27T12:21:01.332Z,41.07
2018-11-27T12:23:31.624Z,41.47
2018-11-27T12:26:01.743Z,37.05
2018-11-27T12:28:32.086Z,41.73
2018-11-27T12:31:02.511Z,41.73
2018-11-27T12:33:32.682Z,39.90
2018-11-27T12:36:02.835Z,39.50
2018-11-27T12:38:33.266Z,46.42
2018-11-27T12:41:03.601Z,37.93
2018-11-27T12:43:33.862Z,40.60
2018-11-27T12:46:03.915Z,37.37
2018-11-27T12:48:34.084Z,35.53
2018-11-27T12:51:04.605Z,37.43
2018-11-27T12:53:35.063Z,35.23
2018-11-27T12:56:05.291Z,39.10
2018-11-27T12:58:35.563Z,41.07
2018-11-27T13:01:09.457Z,42.20
2018-11-27T13:03:36.671Z,41.87
2018-11-27T13:06:07.624Z,39.00
2018-11-27T13:08:38.220Z,38.17
2018-11-27T13:11:11.485Z,38.17
2018-11-27T13:13:38.256Z,40.27
2018-11-27T13:16:08.419Z,37.80
2018-11-27T13:18:38.615Z,38.07
2018-11-27T13:21:09.017Z,38.90
2018-11-27T13:23:42.708Z,41.67
2018-11-27T13:26:12.880Z,39.67
2018-11-27T13:28:42.902Z,36.23
2018-11-27T13:31:13.179Z,37.10
2018-11-27T13:33:55.781Z,34.30
2018-11-27T13:36:26.022Z,39.35
2018-11-27T13:38:56.255Z,37.27
2018-11-27T13:41:26.457Z,40.25
2018-11-27T13:43:56.554Z,41.20
2018-11-27T13:46:26.626Z,40.60
2018-11-27T13:48:56.717Z,36.10
2018-11-27T13:51:26.747Z,37.83
2018-11-27T13:53:56.855Z,34.53
2018-11-27T13:56:26.877Z,37.30
2018-11-27T13:58:56.873Z,37.17
2018-11-27T14:01:26.897Z,35.40
2018-11-27T14:03:57.056Z,37.53
2018-11-27T14:06:27.267Z,35.37
2018-11-27T14:08:59.991Z,33.80
2018-11-27T14:11:30.042Z,36.50
2018-11-27T14:14:00.272Z,34.83
2018-11-27T14:16:30.403Z,32.87
2018-11-27T14:19:00.618Z,33.67
2018-11-27T14:21:30.757Z,38.47
2018-11-27T14:24:00.763Z,41.93
2018-11-27T14:26:30.978Z,36.90
2018-11-27T14:29:01.201Z,37.00
2018-11-27T14:31:31.403Z,35.80
2018-11-27T14:34:01.633Z,34.90
2018-11-27T14:36:31.693Z,43.10
2018-11-27T14:39:01.691Z,37.93
2018-11-27T14:41:31.843Z,37.37
2018-11-27T14:44:01.817Z,39.37
2018-11-27T14:46:32.074Z,40.43
2018-11-27T14:49:01.972Z,39.97
2018-11-27T14:51:38.563Z,41.63
2018-11-27T14:54:08.724Z,38.73
2018-11-27T14:56:39.121Z,44.33
2018-11-27T14:59:09.065Z,42.23
2018-11-27T15:01:39.201Z,39.90
2018-11-27T15:04:09.225Z,40.33
2018-11-27T15:06:39.444Z,39.33
2018-11-27T15:09:10.912Z,44.53
2018-11-27T15:11:41.064Z,44.80
2018-11-27T15:14:11.511Z,40.17
2018-11-27T15:16:41.685Z,40.00
2018-11-27T15:19:11.870Z,41.77
2018-11-27T15:21:42.158Z,39.40
2018-11-27T15:24:12.447Z,43.07
2018-11-27T15:26:42.390Z,39.00
2018-11-27T15:29:12.599Z,45.77
2018-11-27T15:31:42.744Z,33.73
2018-11-27T15:34:12.963Z,39.17
2018-11-27T15:36:43.352Z,41.28
2018-11-27T15:39:13.650Z,40.83
2018-11-27T15:41:44.084Z,44.83
2018-11-27T15:44:14.543Z,44.93
2018-11-27T15:46:44.838Z,42.35
2018-11-27T15:49:14.959Z,37.90
2018-11-27T15:51:45.127Z,38.80
2018-11-27T15:54:15.300Z,40.33
2018-11-27T15:56:45.602Z,35.85
2018-11-27T15:59:15.631Z,37.97
2018-11-27T16:01:46.853Z,40.30
2018-11-27T16:04:17.020Z,46.13
2018-11-27T16:06:47.037Z,42.30
2018-11-27T16:09:17.250Z,39.50
2018-11-27T16:11:47.247Z,39.58
2018-11-27T16:14:17.286Z,38.23
2018-11-27T16:16:47.844Z,41.47
2018-11-27T16:19:17.809Z,34.90
2018-11-27T16:21:47.956Z,42.70
2018-11-27T16:24:20.326Z,39.50
2018-11-27T16:26:50.477Z,40.20
2018-11-27T16:29:20.733Z,39.40
2018-11-27T16:31:51.909Z,42.70
2018-11-27T16:34:22.058Z,36.35
2018-11-27T16:36:52.249Z,35.57
2018-11-27T16:39:22.223Z,38.02
2018-11-27T16:41:52.489Z,39.20
2018-11-27T16:44:22.771Z,35.15
2018-11-27T16:46:52.923Z,39.30
2018-11-27T16:49:23.065Z,42.40
2018-11-27T16:51:53.193Z,36.93
2018-11-27T16:54:23.464Z,33.58
2018-11-27T16:56:53.471Z,34.33
2018-11-27T16:59:54.439Z,39.37
2018-11-27T17:02:25.239Z,37.17
2018-11-27T17:04:55.400Z,34.55
2018-11-27T17:07:25.623Z,35.07
2018-11-27T17:09:55.654Z,36.20
2018-11-27T17:12:25.971Z,39.33
2018-11-27T17:14:56.099Z,36.00
2018-11-27T17:17:26.703Z,39.43
2018-11-27T17:19:56.934Z,35.93
2018-11-27T17:22:27.129Z,36.60
2018-11-27T17:24:57.095Z,35.37
2018-11-27T17:27:27.375Z,44.47
2018-11-27T17:29:57.537Z,38.60
2018-11-27T17:32:27.657Z,41.30
2018-11-27T17:34:57.621Z,38.38
2018-11-27T17:37:27.948Z,37.42
2018-11-27T17:39:58.385Z,36.07
2018-11-27T17:42:28.595Z,41.53
2018-11-27T17:44:58.924Z,35.10
2018-11-27T17:47:28.963Z,33.90
2018-11-27T17:49:59.283Z,40.30
2018-11-27T17:52:29.127Z,37.60
2018-11-27T17:54:59.279Z,42.05
2018-11-27T17:57:29.511Z,44.77
2018-11-27T17:59:59.731Z,38.83
2018-11-27T18:02:29.969Z,44.93
2018-11-27T18:05:14.739Z,35.10
2018-11-27T18:07:44.877Z,36.87
2018-11-27T18:10:14.955Z,37.50
2018-11-27T18:12:45.236Z,36.70
2018-11-27T18:15:18.275Z,39.42
2018-11-27T18:17:48.529Z,38.33
2018-11-27T18:20:18.681Z,34.93
2018-11-27T18:22:48.940Z,40.20
2018-11-27T18:25:20.288Z,38.98
2018-11-27T18:27:51.219Z,38.13
2018-11-27T18:30:23.119Z,41.95
2018-11-27T18:32:53.509Z,38.30
2018-11-27T18:35:24.993Z,39.85
2018-11-27T18:37:55.344Z,39.43
2018-11-27T18:40:25.730Z,41.20
2018-11-27T18:42:56.029Z,35.93
2018-11-27T18:45:28.722Z,38.90
2018-11-27T18:47:59.063Z,36.97
2018-11-27T18:50:30.888Z,38.17
2018-11-27T18:53:01.134Z,37.10
2018-11-27T18:55:32.508Z,39.70
2018-11-27T18:58:03.055Z,38.90
2018-11-27T19:00:40.512Z,41.87
2018-11-27T19:03:13.081Z,39.50
2018-11-27T19:05:43.330Z,39.13
2018-11-27T19:08:13.799Z,36.07
2018-11-27T19:10:45.257Z,36.67
2018-11-27T19:13:18.052Z,41.48
2018-11-27T19:15:49.582Z,46.67
2018-11-27T19:18:23.174Z,38.48
2018-11-27T19:20:53.435Z,35.70
2018-11-27T19:23:24.922Z,37.40
2018-11-27T19:25:55.175Z,37.10
2018-11-27T19:28:25.332Z,44.77
2018-11-27T19:30:55.353Z,42.20
2018-11-27T19:33:25.454Z,40.97
2018-11-27T19:35:55.668Z,40.57
2018-11-27T19:38:25.689Z,37.33
2018-11-27T19:40:55.870Z,34.70
2018-11-27T19:43:25.919Z,41.20
2018-11-27T19:45:55.997Z,34.80
2018-11-27T19:48:26.000Z,40.92
2018-11-27T19:50:57.007Z,37.33
2018-11-27T19:53:27.358Z,41.53
2018-11-27T20:28:51.571Z,46.30
2018-11-27T20:31:20.960Z,40.40
2018-11-27T20:33:50.326Z,38.25
2018-11-27T20:36:19.783Z,35.03
2018-11-27T20:38:49.071Z,37.03
2018-11-27T20:41:18.470Z,35.57
2018-11-27T20:43:47.918Z,46.45
2018-11-27T20:46:17.232Z,36.58
2018-11-27T20:48:46.545Z,46.90
2018-11-27T20:51:16.261Z,42.70
2018-11-27T20:53:45.678Z,49.70
2018-11-27T20:56:15.017Z,46.37
2018-11-27T20:58:44.376Z,44.90
2018-11-27T21:01:13.720Z,37.10
2018-11-27T21:03:43.059Z,42.63
2018-11-27T21:06:13.287Z,39.70
2018-11-27T21:08:42.676Z,38.80
2018-11-27T21:11:12.040Z,40.53
2018-11-27T21:13:41.465Z,38.60
2018-11-27T21:16:11.306Z,38.60
2018-11-27T21:18:41.566Z,37.80
2018-11-27T21:21:11.870Z,36.55
2018-11-27T21:23:41.297Z,39.53
2018-11-27T21:26:12.311Z,33.30
2018-11-27T21:28:41.975Z,42.40
2018-11-27T21:31:11.500Z,36.73
2018-11-27T21:33:42.131Z,37.03
2018-11-27T21:36:11.480Z,36.50
2018-11-27T21:38:41.516Z,39.38
2018-11-27T21:41:12.233Z,37.53
2018-11-27T21:43:41.603Z,35.93
2018-11-27T21:46:11.658Z,38.57
2018-11-27T21:48:41.603Z,39.67
2018-11-27T21:51:11.709Z,32.90
2018-11-27T21:53:41.704Z,32.80
2018-11-27T21:56:11.733Z,38.65
2018-11-27T21:58:41.622Z,37.00
2018-11-27T22:01:12.345Z,40.38
2018-11-27T22:03:42.529Z,39.37
2018-11-27T22:06:12.430Z,34.43
2018-11-27T22:08:48.420Z,35.77
2018-11-27T22:11:18.532Z,37.83
2018-11-27T22:13:48.377Z,36.83
2018-11-27T22:16:18.384Z,40.12
2018-11-27T22:18:48.373Z,34.80
2018-11-27T22:21:18.279Z,39.67
2018-11-27T22:23:48.204Z,38.20
2018-11-27T22:26:18.120Z,45.70
2018-11-27T22:28:48.031Z,37.50
2018-11-27T22:31:18.111Z,40.73
2018-11-27T22:33:47.909Z,35.73
2018-11-27T22:36:17.888Z,37.13
2018-11-27T22:38:47.907Z,40.27
2018-11-27T22:41:17.688Z,39.00
2018-11-27T22:43:47.465Z,40.88
2018-11-27T22:46:17.453Z,36.70
2018-11-27T22:48:48.325Z,39.55
2018-11-27T22:51:18.274Z,34.65
2018-11-27T22:53:48.283Z,37.97
2018-11-27T22:56:18.077Z,34.57
2018-11-27T22:58:47.853Z,38.97
2018-11-27T23:01:17.749Z,43.43
2018-11-27T23:03:47.661Z,35.98
2018-11-27T23:06:17.728Z,39.42
2018-11-27T23:08:47.597Z,35.20
2018-11-27T23:11:17.429Z,40.60
2018-11-27T23:13:47.646Z,37.65
2018-11-27T23:16:21.453Z,37.43
2018-11-27T23:18:51.452Z,39.77
2018-11-27T23:21:21.985Z,40.58
2018-11-27T23:23:52.012Z,41.95
2018-11-27T23:26:21.905Z,35.52
2018-11-27T23:28:51.818Z,38.80
2018-11-27T23:31:21.959Z,36.43
2018-11-27T23:33:52.059Z,40.80
2018-11-27T23:36:21.973Z,35.67
2018-11-27T23:38:51.911Z,38.63
2018-11-27T23:41:21.809Z,44.67
2018-11-27T23:43:52.047Z,40.90
2018-11-27T23:46:21.945Z,39.03
2018-11-27T23:48:52.164Z,44.87
2018-11-27T23:51:22.500Z,38.10
2018-11-27T23:53:52.296Z,40.90
2018-11-27T23:56:22.210Z,40.20
2018-11-27T23:58:52.232Z,38.50
